Time;durP1;ratioP1;P1;durP2;ratioP2;P2;SDS_P1;SDS_P2;PMS_P1;PMS_P2;Temp;Humidity;BMP_temperature;BMP_pressure;BME280_temperature;BME280_humidity;BME280_pressure;Samples;Min_cycle;Max_cycle;Signal;HPM_P1;HPM_P2
2022/11/25 00:00:51;;;;;;;15.32;4.45;;;8.30;99.90;;;;;;5060461;28;20060;-68
2022/11/25 00:03:17;;;;;;;14.32;4.35;;;8.30;99.90;;;;;;5054435;28;20054;-68
2022/11/25 00:05:42;;;;;;;14.63;3.78;;;8.40;99.90;;;;;;5050026;28;20048;-68
2022/11/25 00:08:08;;;;;;;10.70;3.97;;;8.30;99.90;;;;;;5053418;28;20524;-68
2022/11/25 00:10:34;;;;;;;13.65;4.88;;;8.30;99.90;;;;;;5043831;28;20050;-68
2022/11/25 00:13:00;;;;;;;16.20;4.35;;;8.30;99.90;;;;;;5062656;28;20464;-68
2022/11/25 00:15:25;;;;;;;17.67;4.18;;;8.30;99.90;;;;;;5084630;28;20048;-68
2022/11/25 00:17:51;;;;;;;19.75;5.50;;;8.30;99.90;;;;;;5085082;28;20095;-68
2022/11/25 00:20:21;;;;;;;20.67;4.40;;;8.30;99.90;;;;;;5085192;28;20052;-68
2022/11/25 00:22:47;;;;;;;21.63;4.63;;;8.30;99.90;;;;;;5054999;28;20072;-68
2022/11/25 00:25:12;;;;;;;12.95;3.92;;;8.30;99.90;;;;;;5027477;28;20056;-68
2022/11/25 00:27:38;;;;;;;18.58;4.03;;;8.30;99.90;;;;;;5052770;28;20048;-68
2022/11/25 00:30:04;;;;;;;20.83;6.25;;;8.20;99.90;;;;;;5067291;28;20049;-68
2022/11/25 00:32:30;;;;;;;16.92;5.15;;;8.20;99.90;;;;;;5053004;28;20040;-68
2022/11/25 00:34:56;;;;;;;15.10;3.95;;;8.20;99.90;;;;;;5050213;28;20052;-68
2022/11/25 00:37:22;;;;;;;14.98;4.38;;;8.30;99.90;;;;;;5048645;28;20040;-68
2022/11/25 00:39:47;;;;;;;15.40;4.07;;;8.30;99.90;;;;;;5057052;28;20089;-68
2022/11/25 00:44:57;;;;;;;13.07;3.90;;;8.30;99.90;;;;;;5081817;28;20053;-68
2022/11/25 00:47:23;;;;;;;14.27;4.95;;;8.40;99.90;;;;;;5060854;28;20045;-68
2022/11/25 00:49:53;;;;;;;18.75;4.78;;;8.30;99.90;;;;;;5055596;28;20053;-68
2022/11/25 00:52:24;;;;;;;14.32;5.07;;;8.30;99.90;;;;;;5060243;28;20119;-68
2022/11/25 00:54:51;;;;;;;13.00;4.70;;;8.30;99.90;;;;;;5075235;28;20049;-68
2022/11/25 00:57:19;;;;;;;16.10;4.45;;;8.40;99.90;;;;;;5092448;28;20435;-69
2022/11/25 00:59:45;;;;;;;15.07;4.15;;;8.40;99.90;;;;;;5035903;28;20057;-68
2022/11/25 01:02:12;;;;;;;12.10;3.75;;;8.40;99.90;;;;;;5038669;28;20098;-68
2022/11/25 01:04:38;;;;;;;14.25;4.10;;;8.40;99.90;;;;;;5036015;28;20089;-68
2022/11/25 01:07:04;;;;;;;20.60;4.60;;;8.30;99.90;;;;;;5039607;28;20049;-68
2022/11/25 01:09:30;;;;;;;13.90;4.53;;;8.30;99.90;;;;;;5039079;28;20087;-68
2022/11/25 01:11:56;;;;;;;12.05;3.95;;;8.20;99.90;;;;;;5038759;28;20045;-68
2022/11/25 01:14:22;;;;;;;13.25;3.85;;;8.30;99.90;;;;;;5054265;28;20093;-68
2022/11/25 01:16:49;;;;;;;13.63;5.63;;;8.30;99.90;;;;;;5039355;28;20052;-68
2022/11/25 01:19:15;;;;;;;17.58;4.93;;;8.20;99.90;;;;;;5037181;28;20048;-68
2022/11/25 01:21:41;;;;;;;21.05;4.72;;;8.20;99.90;;;;;;5036063;28;20037;-68
2022/11/25 01:24:10;;;;;;;14.73;4.28;;;8.20;99.90;;;;;;5036274;28;20122;-68
2022/11/25 01:26:36;;;;;;;12.60;3.33;;;8.20;99.90;;;;;;5065549;28;20436;-68
2022/11/25 01:29:09;;;;;;;18.55;3.80;;;8.10;99.90;;;;;;5036816;28;20053;-68
2022/11/25 01:31:35;;;;;;;12.93;4.13;;;8.20;99.90;;;;;;5039729;28;20045;-68
2022/11/25 01:34:05;;;;;;;15.70;4.07;;;8.10;99.90;;;;;;5027249;28;20121;-68
2022/11/25 01:36:31;;;;;;;14.85;5.65;;;8.20;99.90;;;;;;5039329;28;20088;-68
2022/11/25 01:38:59;;;;;;;15.57;4.35;;;8.10;99.90;;;;;;5043677;28;20071;-68
2022/11/25 01:41:30;;;;;;;16.02;4.30;;;8.20;99.90;;;;;;5027267;28;20049;-69
2022/11/25 01:44:18;;;;;;;16.55;4.18;;;8.20;99.90;;;;;;5028166;28;20090;-68
2022/11/25 01:47:09;;;;;;;17.02;6.10;;;8.10;99.90;;;;;;5017946;28;20061;-68
2022/11/25 01:49:49;;;;;;;15.82;4.43;;;8.10;99.90;;;;;;5024605;28;20054;-68
2022/11/25 01:52:23;;;;;;;20.63;4.35;;;8.10;99.90;;;;;;5023258;28;20078;-68
2022/11/25 01:55:01;;;;;;;13.25;4.20;;;8.00;99.90;;;;;;5030592;28;20046;-68
2022/11/25 01:57:51;;;;;;;17.10;4.38;;;8.00;99.90;;;;;;5033810;28;20064;-69
2022/11/25 02:00:17;;;;;;;;;;;8.20;99.90;;;;;;5060584;28;20045;-68
2022/11/25 02:02:43;;;;;;;15.52;4.50;;;8.10;99.90;;;;;;5042984;28;19921;-68
2022/11/25 02:05:13;;;;;;;16.75;3.88;;;8.10;99.90;;;;;;5034670;28;20053;-68
2022/11/25 02:07:43;;;;;;;18.60;4.32;;;8.10;99.90;;;;;;5065724;28;20052;-68
2022/11/25 02:10:18;;;;;;;20.77;4.88;;;8.10;99.90;;;;;;5090787;28;20411;-68
2022/11/25 02:12:45;;;;;;;18.90;3.95;;;8.20;99.90;;;;;;5031810;28;20055;-68
2022/11/25 02:15:11;;;;;;;16.13;4.07;;;8.20;99.90;;;;;;5036910;28;20055;-68
2022/11/25 02:17:37;;;;;;;18.80;3.72;;;8.20;99.90;;;;;;5050826;28;20061;-68
2022/11/25 02:20:09;;;;;;;13.73;4.18;;;8.10;99.90;;;;;;5018360;28;20037;-68
2022/11/25 02:23:03;;;;;;;17.95;3.75;;;8.20;99.90;;;;;;5084729;28;20044;-68
2022/11/25 02:25:32;;;;;;;17.92;5.15;;;8.30;99.90;;;;;;5054820;28;20052;-69
2022/11/25 02:28:05;;;;;;;19.42;4.18;;;8.20;99.90;;;;;;5087455;28;20052;-68
2022/11/25 02:30:32;;;;;;;13.45;3.97;;;8.10;99.90;;;;;;5065987;28;20040;-68
2022/11/25 02:32:59;;;;;;;19.77;4.53;;;8.20;99.90;;;;;;5074141;28;20087;-68
2022/11/25 02:35:45;;;;;;;20.83;5.40;;;8.10;99.90;;;;;;5063745;28;20054;-68
2022/11/25 02:38:21;;;;;;;15.63;4.22;;;8.20;99.90;;;;;;5043309;28;20041;-68
2022/11/25 02:40:49;;;;;;;13.00;4.00;;;8.30;99.90;;;;;;5040119;28;20075;-68
2022/11/25 02:43:15;;;;;;;15.57;4.35;;;8.30;99.90;;;;;;5056159;28;20080;-68
2022/11/25 02:45:51;;;;;;;17.08;4.43;;;8.20;99.90;;;;;;5062169;28;20041;-68
2022/11/25 02:48:16;;;;;;;15.98;4.63;;;8.20;99.90;;;;;;5074662;28;20049;-68
2022/11/25 02:50:42;;;;;;;19.08;4.85;;;8.20;99.90;;;;;;5047877;28;20056;-68
2022/11/25 02:53:08;;;;;;;16.20;4.60;;;8.20;99.90;;;;;;5067687;28;20287;-68
2022/11/25 02:55:34;;;;;;;12.27;4.22;;;8.10;99.90;;;;;;5068248;28;20107;-69
2022/11/25 02:58:00;;;;;;;17.67;4.60;;;8.20;99.90;;;;;;5075295;28;20058;-68
2022/11/25 03:00:25;;;;;;;14.00;4.82;;;8.30;99.90;;;;;;5045813;28;20061;-68
2022/11/25 03:02:53;;;;;;;17.33;4.57;;;8.20;99.90;;;;;;5041807;28;20052;-68
2022/11/25 03:05:22;;;;;;;20.20;4.88;;;8.20;99.90;;;;;;5041204;28;20053;-68
2022/11/25 03:07:48;;;;;;;19.17;5.13;;;8.20;99.90;;;;;;5081871;28;20049;-68
2022/11/25 03:10:14;;;;;;;18.02;4.70;;;8.10;99.90;;;;;;5081136;28;20055;-68
2022/11/25 03:12:40;;;;;;;23.10;6.10;;;8.20;99.90;;;;;;5047812;28;20051;-68
2022/11/25 03:15:06;;;;;;;15.75;4.60;;;8.20;99.90;;;;;;5059995;28;20049;-68
2022/11/25 03:17:31;;;;;;;20.55;5.03;;;8.10;99.90;;;;;;5040962;28;20131;-68
2022/11/25 03:19:57;;;;;;;17.73;4.88;;;8.20;99.90;;;;;;5067516;28;20048;-68
2022/11/25 03:22:23;;;;;;;21.80;5.28;;;8.20;99.90;;;;;;5041321;28;20047;-68
2022/11/25 03:24:49;;;;;;;17.83;4.70;;;8.20;99.90;;;;;;5068442;28;20080;-68
2022/11/25 03:27:14;;;;;;;19.95;5.35;;;8.20;99.90;;;;;;5078818;28;20049;-68
2022/11/25 03:29:40;;;;;;;12.30;4.20;;;8.20;99.90;;;;;;5038341;28;20040;-68
2022/11/25 03:32:06;;;;;;;14.40;4.70;;;8.20;99.90;;;;;;5092012;28;20498;-68
2022/11/25 03:34:32;;;;;;;17.92;5.75;;;8.20;99.90;;;;;;5064279;28;20051;-68
2022/11/25 03:36:58;;;;;;;18.65;5.47;;;8.10;99.90;;;;;;5045878;28;20509;-68
2022/11/25 03:39:23;;;;;;;21.23;6.22;;;8.10;99.90;;;;;;5072524;28;20107;-68
2022/11/25 03:41:49;;;;;;;14.82;4.75;;;8.20;99.90;;;;;;5054300;28;20056;-69
2022/11/25 03:44:15;;;;;;;18.77;5.28;;;8.10;99.90;;;;;;5044720;28;20065;-68
2022/11/25 03:46:41;;;;;;;16.52;5.07;;;8.20;99.90;;;;;;5053657;28;20048;-68
2022/11/25 03:49:07;;;;;;;19.55;6.13;;;8.10;99.90;;;;;;5077490;28;20037;-68
2022/11/25 03:51:32;;;;;;;16.42;5.20;;;8.10;99.90;;;;;;5059715;28;20057;-68
2022/11/25 03:53:58;;;;;;;21.08;5.35;;;8.10;99.90;;;;;;5041775;28;20086;-68
2022/11/25 03:56:24;;;;;;;20.25;6.50;;;8.10;99.90;;;;;;5050105;28;20522;-68
2022/11/25 03:58:49;;;;;;;16.65;5.72;;;8.10;99.90;;;;;;5053488;28;20063;-68
2022/11/25 04:01:15;;;;;;;14.13;4.95;;;8.10;99.90;;;;;;5066980;28;20069;-68
2022/11/25 04:03:41;;;;;;;15.93;5.15;;;8.10;99.90;;;;;;5061036;28;20693;-68
2022/11/25 04:06:06;;;;;;;17.42;5.05;;;8.20;99.90;;;;;;5045002;28;20056;-68
2022/11/25 04:08:32;;;;;;;14.77;5.10;;;8.20;99.90;;;;;;5058022;28;20076;-68
2022/11/25 04:10:58;;;;;;;19.63;5.50;;;8.30;99.90;;;;;;5038805;28;20066;-68
2022/11/25 04:13:24;;;;;;;14.45;4.78;;;8.20;99.90;;;;;;5038745;28;20040;-68
2022/11/25 04:15:50;;;;;;;14.75;5.15;;;8.30;99.90;;;;;;5041496;28;20133;-68
2022/11/25 04:18:17;;;;;;;19.83;5.72;;;8.20;99.90;;;;;;5054673;28;20076;-68
2022/11/25 04:20:43;;;;;;;20.27;6.03;;;8.20;99.90;;;;;;5039454;28;20128;-68
2022/11/25 04:23:10;;;;;;;19.08;5.07;;;8.20;99.90;;;;;;5065314;28;20053;-68
2022/11/25 04:25:37;;;;;;;15.15;6.00;;;8.20;99.90;;;;;;5046997;28;20485;-68
2022/11/25 04:28:03;;;;;;;20.30;5.80;;;8.10;99.90;;;;;;5046758;28;20049;-68
2022/11/25 04:30:29;;;;;;;17.00;5.05;;;8.20;99.90;;;;;;5065118;28;20052;-68
2022/11/25 04:32:55;;;;;;;19.20;6.32;;;8.10;99.90;;;;;;5070071;28;20047;-69
2022/11/25 04:35:21;;;;;;;15.75;5.47;;;8.20;99.90;;;;;;5059534;28;20045;-68
2022/11/25 04:37:47;;;;;;;20.70;5.45;;;8.20;99.90;;;;;;5079012;28;20041;-68
2022/11/25 04:40:13;;;;;;;14.60;5.82;;;8.20;99.90;;;;;;5069081;28;20109;-68
2022/11/25 04:42:39;;;;;;;20.55;5.38;;;8.20;99.90;;;;;;5064041;28;20045;-68
2022/11/25 04:45:06;;;;;;;17.13;6.53;;;8.10;99.90;;;;;;5060642;28;20049;-68
2022/11/25 04:47:32;;;;;;;23.45;6.20;;;8.20;99.90;;;;;;5071334;28;20101;-68
2022/11/25 04:49:58;;;;;;;14.85;5.40;;;8.10;99.90;;;;;;5039205;28;20075;-68
2022/11/25 04:52:24;;;;;;;36.17;8.02;;;8.10;99.90;;;;;;5055288;28;20045;-69
2022/11/25 04:54:50;;;;;;;28.30;6.45;;;8.20;99.90;;;;;;5045494;28;20083;-68
2022/11/25 04:57:16;;;;;;;18.25;5.78;;;8.20;99.90;;;;;;5062890;28;20040;-69
2022/11/25 04:59:42;;;;;;;22.23;6.38;;;8.20;99.90;;;;;;5044884;28;20069;-68
2022/11/25 05:02:16;;;;;;;21.98;5.95;;;8.20;99.90;;;;;;5035759;28;20051;-68
2022/11/25 05:04:43;;;;;;;13.98;6.18;;;8.20;99.90;;;;;;5066064;28;20730;-68
2022/11/25 05:07:09;;;;;;;20.05;6.78;;;8.20;99.90;;;;;;5039527;28;20104;-68
2022/11/25 05:09:35;;;;;;;21.05;6.13;;;8.30;99.90;;;;;;5081022;28;20052;-68
2022/11/25 05:12:01;;;;;;;21.35;6.63;;;8.30;99.90;;;;;;5055743;28;20052;-68
2022/11/25 05:14:27;;;;;;;21.95;6.03;;;8.30;99.90;;;;;;5055045;28;20049;-68
2022/11/25 05:16:53;;;;;;;21.02;6.47;;;8.30;99.90;;;;;;5055771;28;20049;-68
2022/11/25 05:19:18;;;;;;;18.23;6.55;;;8.20;99.90;;;;;;5027038;28;20132;-68
2022/11/25 05:21:44;;;;;;;18.17;6.15;;;8.30;99.90;;;;;;5060531;28;20045;-68
2022/11/25 05:24:10;;;;;;;20.83;6.90;;;8.40;99.90;;;;;;5068007;28;20128;-68
2022/11/25 05:26:35;;;;;;;18.35;6.35;;;8.30;99.90;;;;;;5037041;28;20101;-68
2022/11/25 05:29:01;;;;;;;18.38;6.20;;;8.30;99.90;;;;;;5073014;28;20052;-68
2022/11/25 05:31:27;;;;;;;22.80;7.03;;;8.30;99.90;;;;;;5033650;28;20068;-68
2022/11/25 05:33:52;;;;;;;19.55;6.60;;;8.40;99.90;;;;;;5049323;28;20459;-68
2022/11/25 05:36:18;;;;;;;22.20;6.80;;;8.20;99.90;;;;;;5063813;28;20099;-68
2022/11/25 05:38:44;;;;;;;18.70;7.55;;;8.30;99.90;;;;;;5058465;28;20405;-68
2022/11/25 05:41:10;;;;;;;20.65;6.80;;;8.30;99.90;;;;;;5056453;28;20048;-68
2022/11/25 05:43:36;;;;;;;20.95;6.63;;;8.40;99.90;;;;;;5041168;28;20535;-68
2022/11/25 05:46:09;;;;;;;32.25;8.18;;;8.30;99.90;;;;;;5086509;28;20075;-68
2022/11/25 05:48:35;;;;;;;19.63;6.65;;;8.20;99.90;;;;;;5061016;28;20045;-68
2022/11/25 05:51:02;;;;;;;22.33;7.00;;;8.30;99.90;;;;;;5053797;28;20048;-68
2022/11/25 05:53:28;;;;;;;21.58;7.20;;;8.20;99.90;;;;;;5054286;28;20049;-68
2022/11/25 05:55:56;;;;;;;23.23;6.82;;;8.20;99.90;;;;;;5036647;28;20057;-68
2022/11/25 05:58:23;;;;;;;19.10;6.53;;;8.20;99.90;;;;;;5064991;28;20061;-68
2022/11/25 06:00:49;;;;;;;20.92;7.07;;;8.30;99.90;;;;;;5062969;28;20061;-68
2022/11/25 06:03:15;;;;;;;21.60;8.25;;;8.40;99.90;;;;;;5016043;28;20076;-68
2022/11/25 06:05:40;;;;;;;20.92;7.15;;;8.40;99.90;;;;;;5051708;28;20501;-68
2022/11/25 06:08:07;;;;;;;21.58;8.10;;;8.50;99.90;;;;;;5049145;28;20555;-68
2022/11/25 06:10:32;;;;;;;20.90;8.75;;;8.40;99.90;;;;;;5041529;28;20059;-68
2022/11/25 06:12:58;;;;;;;25.52;8.45;;;8.50;99.90;;;;;;5048277;28;20084;-68
2022/11/25 06:15:24;;;;;;;17.45;7.63;;;8.60;99.90;;;;;;5023863;28;20052;-68
2022/11/25 06:17:50;;;;;;;23.35;8.95;;;8.60;99.90;;;;;;5079226;28;20067;-68
2022/11/25 06:20:16;;;;;;;18.75;8.73;;;8.60;99.90;;;;;;5061087;28;20131;-67
2022/11/25 06:22:41;;;;;;;19.17;8.45;;;8.60;99.90;;;;;;5058928;28;20037;-67
2022/11/25 06:25:08;;;;;;;24.58;7.93;;;8.60;99.90;;;;;;5071378;28;20071;-68
2022/11/25 06:27:33;;;;;;;24.77;8.10;;;8.50;99.90;;;;;;5047198;28;20131;-68
2022/11/25 06:29:59;;;;;;;20.90;8.20;;;8.60;99.90;;;;;;5047519;28;20073;-68
2022/11/25 06:32:25;;;;;;;19.85;7.72;;;8.50;99.90;;;;;;5053499;28;20049;-68
2022/11/25 06:34:50;;;;;;;24.67;7.95;;;8.60;99.90;;;;;;5037772;28;20054;-67
2022/11/25 06:37:16;;;;;;;23.20;8.57;;;8.60;99.90;;;;;;5043024;28;20468;-68
2022/11/25 06:39:41;;;;;;;22.83;7.80;;;8.60;99.90;;;;;;5042472;28;20087;-69
2022/11/25 06:42:07;;;;;;;21.92;8.27;;;8.70;99.90;;;;;;5054040;28;20467;-67
2022/11/25 06:44:33;;;;;;;19.52;8.43;;;8.60;99.90;;;;;;5041363;28;20059;-68
2022/11/25 06:46:58;;;;;;;16.45;7.10;;;8.50;99.90;;;;;;5029171;28;20144;-68
2022/11/25 06:49:24;;;;;;;17.05;7.13;;;8.60;99.90;;;;;;5046322;28;20271;-69
2022/11/25 06:51:50;;;;;;;19.52;8.57;;;8.50;99.90;;;;;;5044115;28;20077;-69
2022/11/25 06:54:16;;;;;;;17.63;7.03;;;8.60;99.90;;;;;;5041252;28;20037;-72
2022/11/25 06:56:42;;;;;;;16.23;7.43;;;8.60;99.90;;;;;;5046385;28;20539;-71
2022/11/25 06:59:07;;;;;;;20.13;7.93;;;8.50;99.90;;;;;;5047960;28;20063;-69
2022/11/25 07:01:33;;;;;;;21.05;7.35;;;8.40;99.90;;;;;;5029976;28;20052;-70
2022/11/25 07:04:02;;;;;;;18.55;7.25;;;8.50;99.90;;;;;;5042660;28;20037;-70
2022/11/25 07:06:29;;;;;;;19.90;7.70;;;8.50;99.90;;;;;;5044692;28;20626;-73
2022/11/25 07:08:55;;;;;;;20.58;7.25;;;8.40;99.90;;;;;;5045200;28;20056;-67
2022/11/25 07:11:29;;;;;;;18.55;7.97;;;8.50;99.90;;;;;;5053763;28;20515;-69
2022/11/25 07:14:00;;;;;;;21.70;7.50;;;8.50;99.90;;;;;;5053970;28;20028;-78
2022/11/25 07:16:27;;;;;;;14.77;6.35;;;8.40;99.90;;;;;;5035604;28;20055;-76
2022/11/25 07:18:53;;;;;;;12.23;6.15;;;8.40;99.90;;;;;;5045825;28;20043;-76
2022/11/25 07:21:22;;;;;;;18.92;7.00;;;8.50;99.90;;;;;;5042647;28;20048;-77
2022/11/25 07:23:49;;;;;;;19.42;7.20;;;8.50;99.90;;;;;;5032845;28;20320;-77
2022/11/25 07:26:21;;;;;;;20.65;7.18;;;8.50;99.90;;;;;;5025006;28;20560;-76
2022/11/25 07:28:47;;;;;;;20.45;6.75;;;8.60;99.90;;;;;;5030901;28;20066;-74
2022/11/25 07:31:22;;;;;;;16.40;6.43;;;8.50;99.90;;;;;;5026144;28;20417;-76
2022/11/25 07:33:52;;;;;;;19.52;6.15;;;8.40;99.90;;;;;;5050561;28;20072;-75
2022/11/25 07:36:18;;;;;;;17.83;6.28;;;8.40;99.90;;;;;;5052038;28;20045;-77
2022/11/25 07:38:43;;;;;;;15.75;6.57;;;8.40;99.90;;;;;;5054733;28;20041;-74
2022/11/25 07:41:21;;;;;;;14.93;6.43;;;8.40;99.90;;;;;;5040518;28;20048;-74
2022/11/25 07:43:49;;;;;;;14.43;5.55;;;8.40;99.90;;;;;;5046152;28;20095;-75
2022/11/25 07:46:19;;;;;;;18.23;6.05;;;8.50;99.90;;;;;;5046023;28;20436;-69
2022/11/25 07:48:45;;;;;;;14.10;5.57;;;8.40;99.90;;;;;;5054460;28;20106;-70
2022/11/25 07:51:24;;;;;;;15.80;6.00;;;8.40;99.90;;;;;;5044018;28;20052;-70
2022/11/25 07:53:51;;;;;;;14.90;5.90;;;8.50;99.90;;;;;;5058339;28;20044;-69
2022/11/25 07:56:17;;;;;;;14.50;5.80;;;8.50;99.90;;;;;;5080032;28;20040;-69
2022/11/25 07:58:44;;;;;;;15.05;5.40;;;8.30;99.90;;;;;;5046759;28;20137;-69
2022/11/25 08:01:12;;;;;;;18.30;5.72;;;8.30;99.90;;;;;;5044702;28;20558;-69
2022/11/25 08:03:40;;;;;;;13.07;6.18;;;8.20;99.90;;;;;;5067947;28;20059;-70
2022/11/25 08:06:08;;;;;;;22.27;5.60;;;8.20;99.90;;;;;;5076179;28;20045;-72
2022/11/25 08:08:36;;;;;;;16.25;5.68;;;8.20;99.90;;;;;;5027344;28;20049;-72
2022/11/25 08:11:09;;;;;;;16.05;5.22;;;8.20;99.90;;;;;;5037918;28;20060;-72
2022/11/25 08:13:35;;;;;;;13.55;5.40;;;8.20;99.90;;;;;;5053886;28;20104;-72
2022/11/25 08:16:01;;;;;;;18.60;5.75;;;8.20;99.90;;;;;;5039927;28;20532;-72
2022/11/25 08:18:27;;;;;;;21.27;5.90;;;8.20;99.90;;;;;;5057192;28;20068;-72
2022/11/25 08:20:58;;;;;;;13.75;6.03;;;8.20;99.90;;;;;;5038215;28;20037;-72
2022/11/25 08:23:23;;;;;;;10.90;5.35;;;8.20;99.90;;;;;;5051540;28;20061;-72
2022/11/25 08:25:49;;;;;;;19.15;5.97;;;8.20;99.90;;;;;;5026677;28;20044;-74
2022/11/25 08:28:15;;;;;;;11.57;5.68;;;8.20;99.90;;;;;;5058414;28;20117;-72
2022/11/25 08:30:40;;;;;;;17.25;5.93;;;8.20;99.90;;;;;;5032631;28;20087;-72
2022/11/25 08:33:06;;;;;;;15.65;5.70;;;8.20;99.90;;;;;;5056862;28;20061;-72
2022/11/25 08:35:36;;;;;;;16.45;6.30;;;8.20;99.90;;;;;;5076173;28;20045;-72
2022/11/25 08:38:04;;;;;;;20.65;6.63;;;8.10;99.90;;;;;;5056874;28;20136;-72
2022/11/25 08:40:31;;;;;;;18.98;6.20;;;8.20;99.90;;;;;;5042130;28;20104;-72
2022/11/25 08:42:56;;;;;;;24.98;6.28;;;8.20;99.90;;;;;;5049451;28;20052;-72
2022/11/25 08:45:22;;;;;;;19.02;6.63;;;8.20;99.90;;;;;;5029084;28;20044;-71
2022/11/25 08:47:48;;;;;;;14.30;5.38;;;8.20;99.90;;;;;;5047522;28;20052;-72
2022/11/25 08:50:14;;;;;;;16.95;5.90;;;8.30;99.90;;;;;;5059454;28;20041;-72
2022/11/25 08:52:40;;;;;;;17.42;6.32;;;8.30;99.90;;;;;;5030420;28;20060;-73
2022/11/25 08:55:07;;;;;;;16.38;6.30;;;8.30;99.90;;;;;;5043784;28;20060;-72
2022/11/25 08:57:33;;;;;;;18.85;6.78;;;8.40;99.90;;;;;;5044011;28;20611;-73
2022/11/25 08:59:59;;;;;;;19.88;6.03;;;8.40;99.90;;;;;;5047762;28;20786;-73
2022/11/25 09:02:24;;;;;;;16.45;6.68;;;8.30;99.90;;;;;;5043302;28;20056;-71
2022/11/25 09:04:50;;;;;;;17.10;6.63;;;8.40;99.90;;;;;;5059199;28;20131;-72
2022/11/25 09:07:16;;;;;;;15.57;5.72;;;8.50;99.90;;;;;;5044818;28;20048;-72
2022/11/25 09:09:41;;;;;;;21.30;6.88;;;8.40;99.90;;;;;;5049423;28;20045;-72
2022/11/25 09:12:07;;;;;;;18.90;6.68;;;8.60;99.90;;;;;;5050292;28;20053;-72
2022/11/25 09:14:33;;;;;;;15.63;6.47;;;8.50;99.90;;;;;;5043642;28;20120;-73
2022/11/25 09:17:00;;;;;;;16.80;6.93;;;8.70;99.90;;;;;;5068719;28;20100;-71
2022/11/25 09:19:26;;;;;;;16.17;6.75;;;8.70;99.90;;;;;;5043994;28;20107;-71
2022/11/25 09:21:53;;;;;;;19.05;7.25;;;8.80;99.90;;;;;;5042099;28;20052;-71
2022/11/25 09:24:19;;;;;;;18.40;6.63;;;8.90;99.90;;;;;;5037375;28;20507;-71
2022/11/25 09:26:45;;;;;;;21.25;6.95;;;8.80;99.90;;;;;;5015297;28;20099;-72
2022/11/25 09:29:12;;;;;;;16.20;6.10;;;8.90;99.90;;;;;;5024079;28;20033;-71
2022/11/25 09:31:39;;;;;;;12.95;6.63;;;8.90;99.90;;;;;;5025719;28;20121;-71
2022/11/25 09:34:06;;;;;;;14.50;6.22;;;9.00;99.90;;;;;;5036023;28;20113;-72
2022/11/25 09:36:31;;;;;;;17.30;6.63;;;9.00;99.90;;;;;;5036911;28;20059;-71
2022/11/25 09:38:57;;;;;;;16.90;6.75;;;8.90;99.90;;;;;;5041728;28;20113;-71
2022/11/25 09:47:54;;;;;;;11.15;6.30;;;9.00;99.90;;;;;;5044577;28;20058;-72
2022/11/25 09:50:46;;;;;;;13.50;7.05;;;9.20;99.90;;;;;;5035364;28;20597;-72
2022/11/25 09:53:40;;;;;;;17.52;6.80;;;9.20;99.90;;;;;;5049271;28;20559;-72
2022/11/25 09:56:33;;;;;;;13.77;6.45;;;9.20;99.90;;;;;;5046379;28;20975;-72
2022/11/25 09:59:19;;;;;;;17.88;6.75;;;9.30;99.90;;;;;;5047926;28;20053;-72
2022/11/25 10:01:57;;;;;;;13.38;5.90;;;9.30;99.90;;;;;;5049120;28;20105;-72
2022/11/25 10:04:32;;;;;;;14.68;6.75;;;9.30;99.90;;;;;;5058254;28;20041;-71
2022/11/25 10:07:01;;;;;;;15.57;6.80;;;9.40;99.90;;;;;;5051048;28;20063;-72
2022/11/25 10:09:31;;;;;;;13.43;6.65;;;9.50;99.90;;;;;;5056516;28;20055;-71
2022/11/25 10:12:12;;;;;;;14.88;5.47;;;9.50;99.90;;;;;;5044595;28;20055;-71
2022/11/25 10:14:47;;;;;;;11.23;5.30;;;9.50;99.90;;;;;;5079617;28;20062;-71
2022/11/25 10:17:26;;;;;;;14.70;6.35;;;9.60;99.90;;;;;;5047428;28;20044;-71
2022/11/25 10:20:18;;;;;;;16.98;5.47;;;9.70;99.90;;;;;;5045844;28;20079;-71
2022/11/25 10:22:48;;;;;;;12.60;5.03;;;9.70;99.90;;;;;;5053939;28;20048;-71
2022/11/25 10:25:14;;;;;;;15.05;5.25;;;9.80;99.90;;;;;;5052806;28;20049;-71
2022/11/25 10:28:19;;;;;;;11.93;4.95;;;9.80;99.90;;;;;;5048317;28;20078;-70
2022/11/25 10:31:18;;;;;;;12.18;4.95;;;9.90;99.90;;;;;;5019817;28;20054;-72
2022/11/25 10:33:49;;;;;;;12.75;5.00;;;9.90;99.90;;;;;;4961810;28;20061;-71
2022/11/25 10:36:25;;;;;;;14.85;5.50;;;9.90;99.90;;;;;;4974888;28;20058;-73
2022/11/25 10:39:06;;;;;;;15.68;5.45;;;9.90;99.90;;;;;;4999858;28;20041;-70
2022/11/25 10:41:40;;;;;;;11.38;5.28;;;10.00;99.90;;;;;;5010518;28;20062;-72
2022/11/25 10:44:33;;;;;;;10.93;4.70;;;10.00;99.90;;;;;;5028495;28;20070;-70
2022/11/25 10:47:17;;;;;;;10.43;4.85;;;10.00;99.90;;;;;;4985672;28;20054;-72
2022/11/25 10:50:07;;;;;;;12.77;4.68;;;10.10;99.90;;;;;;4974894;28;20082;-72
2022/11/25 10:52:39;;;;;;;13.10;5.07;;;10.10;99.90;;;;;;5012924;28;20430;-70
2022/11/25 10:55:14;;;;;;;10.93;4.75;;;10.20;99.90;;;;;;4965966;28;20170;-70
2022/11/25 10:57:40;;;;;;;11.30;4.35;;;10.20;99.90;;;;;;5000482;28;20054;-71
2022/11/25 11:00:27;;;;;;;14.27;4.85;;;10.20;99.90;;;;;;4971596;28;20622;-71
2022/11/25 11:02:54;;;;;;;12.45;4.30;;;10.30;99.90;;;;;;5000342;28;20368;-73
2022/11/25 11:05:28;;;;;;;12.13;4.63;;;10.30;99.90;;;;;;4998950;28;20078;-72
2022/11/25 11:08:39;;;;;;;10.95;4.40;;;10.40;99.90;;;;;;5002175;28;20052;-77
2022/11/25 11:11:20;;;;;;;9.48;4.00;;;10.50;99.90;;;;;;4955352;28;20084;-69
2022/11/25 11:13:47;;;;;;;8.50;3.90;;;10.50;99.90;;;;;;4928757;29;20074;-69
2022/11/25 11:16:34;;;;;;;12.50;4.18;;;10.60;99.90;;;;;;4957493;28;20509;-69
2022/11/25 11:19:01;;;;;;;10.80;4.60;;;10.60;99.90;;;;;;4949518;28;20082;-69
2022/11/25 11:21:40;;;;;;;11.90;4.22;;;10.60;99.90;;;;;;4967534;28;20086;-69
2022/11/25 11:24:28;;;;;;;12.15;3.92;;;10.60;99.90;;;;;;4969423;28;20050;-69
2022/11/25 11:27:23;;;;;;;14.10;4.75;;;10.80;99.90;;;;;;4926196;28;20121;-69
2022/11/25 11:30:14;;;;;;;10.25;4.20;;;10.70;99.90;;;;;;4943328;28;20623;-72
2022/11/25 11:32:44;;;;;;;9.60;3.42;;;10.70;99.90;;;;;;4949172;28;20415;-71
2022/11/25 11:35:43;;;;;;;12.10;3.85;;;10.70;99.90;;;;;;4918549;29;20054;-78
2022/11/25 11:38:40;;;;;;;10.48;4.43;;;10.70;99.90;;;;;;4928980;28;20066;-77
2022/11/25 11:41:05;;;;;;;12.25;4.22;;;10.80;99.90;;;;;;4972810;28;20046;-79
2022/11/25 11:44:06;;;;;;;10.68;4.63;;;10.90;99.90;;;;;;4965142;28;20108;-74
2022/11/25 11:46:52;;;;;;;17.10;4.13;;;11.10;99.90;;;;;;5003724;28;20465;-71
2022/11/25 11:49:41;;;;;;;7.88;3.92;;;11.00;99.90;;;;;;5025549;28;20348;-71
2022/11/25 11:52:26;;;;;;;10.60;3.63;;;11.10;99.90;;;;;;5023491;28;21154;-71
2022/11/25 11:55:22;;;;;;;11.00;3.35;;;11.10;99.90;;;;;;5028165;28;20045;-71
2022/11/25 11:58:11;;;;;;;10.77;3.22;;;11.00;99.90;;;;;;5021021;28;20164;-70
2022/11/25 12:00:47;;;;;;;14.32;4.18;;;11.00;99.90;;;;;;5039810;28;20049;-70
2022/11/25 12:03:21;;;;;;;10.57;3.20;;;10.90;99.90;;;;;;5045036;28;20049;-71
2022/11/25 12:05:52;;;;;;;9.43;3.17;;;10.90;99.90;;;;;;5042156;28;20060;-70
2022/11/25 12:08:58;;;;;;;10.88;3.50;;;10.90;99.90;;;;;;5036944;28;20045;-70
2022/11/25 12:11:33;;;;;;;13.48;3.20;;;10.90;99.90;;;;;;5017361;28;20079;-69
2022/11/25 12:14:12;;;;;;;10.23;2.83;;;10.90;99.90;;;;;;5033345;28;20061;-69
2022/11/25 12:16:51;;;;;;;9.55;2.58;;;10.90;99.90;;;;;;5025870;28;20044;-70
2022/11/25 12:19:32;;;;;;;9.95;3.03;;;11.00;99.90;;;;;;5047361;28;20044;-70
2022/11/25 12:22:07;;;;;;;8.90;3.15;;;11.00;99.90;;;;;;5019052;28;20132;-70
2022/11/25 12:24:46;;;;;;;13.68;2.83;;;11.00;99.90;;;;;;5049793;28;20079;-70
2022/11/25 12:27:37;;;;;;;13.57;3.30;;;11.00;99.90;;;;;;5003258;28;20066;-70
2022/11/25 12:30:11;;;;;;;13.30;2.83;;;11.00;99.90;;;;;;5055061;28;20137;-70
2022/11/25 12:32:37;;;;;;;15.43;3.58;;;11.10;99.90;;;;;;5059328;28;20044;-69
2022/11/25 12:35:08;;;;;;;12.30;2.70;;;11.00;99.90;;;;;;5036420;28;20045;-70
2022/11/25 12:37:43;;;;;;;16.30;3.55;;;11.00;99.90;;;;;;5053619;28;20508;-70
2022/11/25 12:40:48;;;;;;;18.30;3.30;;;11.00;99.90;;;;;;5043813;28;20127;-70
2022/11/25 12:43:31;;;;;;;12.18;2.70;;;11.00;99.90;;;;;;5027431;28;20056;-70
2022/11/25 12:46:38;;;;;;;10.60;3.20;;;11.00;99.90;;;;;;5039915;28;20048;-70
2022/11/25 12:49:12;;;;;;;9.52;3.45;;;11.00;99.90;;;;;;5042716;28;20049;-69
2022/11/25 12:51:58;;;;;;;12.02;2.95;;;11.00;99.90;;;;;;5056496;28;20082;-70
2022/11/25 12:54:42;;;;;;;12.15;2.92;;;11.00;99.90;;;;;;5010287;28;20925;-70
2022/11/25 12:57:26;;;;;;;13.85;2.90;;;11.00;99.90;;;;;;5049642;28;20053;-69
2022/11/25 13:00:11;;;;;;;13.52;3.95;;;11.00;99.90;;;;;;5038939;28;20037;-70
2022/11/25 13:03:13;;;;;;;9.73;3.88;;;10.90;99.90;;;;;;5021189;28;20053;-70
2022/11/25 13:05:59;;;;;;;11.55;2.88;;;10.70;99.90;;;;;;5039215;28;20075;-70
2022/11/25 13:08:43;;;;;;;12.57;3.30;;;10.70;99.90;;;;;;5027011;28;20172;-70
2022/11/25 13:11:34;;;;;;;13.75;3.40;;;10.80;99.90;;;;;;5032668;28;20064;-69
2022/11/25 13:14:03;;;;;;;12.00;3.35;;;10.80;99.90;;;;;;5043023;28;20048;-69